Aviation Digital Data Service (ADDS)

Output produced by METARs form (1141 UTC 18 September 2014)
found at http://aviationweather.gov/adds/metars/
 
KPSM 181131Z 1812/1912 VRB03KT P6SM SKC 
     FM181300 31007KT P6SM FEW060 SCT100 
     FM181700 32008KT P6SM SCT060 BKN100 
     FM190000 35009KT P6SM SKC